createdAt,value
2023-05-09T00:01:22.146Z,6.20
2023-05-09T00:03:51.596Z,6.35
2023-05-09T00:06:19.748Z,6.80
2023-05-09T00:08:46.894Z,5.85
2023-05-09T00:11:13.979Z,6.72
2023-05-09T00:13:42.014Z,6.32
2023-05-09T00:16:09.432Z,5.68
2023-05-09T00:18:37.611Z,6.00
2023-05-09T00:21:04.694Z,5.75
2023-05-09T00:23:31.625Z,5.93
2023-05-09T00:25:59.541Z,6.28
2023-05-09T00:28:26.462Z,6.32
2023-05-09T00:30:53.742Z,6.47
2023-05-09T00:33:21.103Z,6.45
2023-05-09T00:35:48.058Z,7.85
2023-05-09T00:38:15.008Z,7.05
2023-05-09T00:40:41.951Z,7.85
2023-05-09T00:43:08.836Z,8.02
2023-05-09T00:45:36.103Z,8.23
2023-05-09T00:50:30.846Z,6.90
2023-05-09T00:52:58.474Z,6.90
2023-05-09T00:55:26.621Z,6.60
2023-05-09T00:57:53.617Z,6.25
2023-05-09T01:00:20.746Z,6.93
2023-05-09T01:02:53.270Z,6.50
2023-05-09T01:05:21.704Z,7.07
2023-05-09T01:08:10.774Z,6.22
2023-05-09T01:10:46.667Z,6.28
2023-05-09T01:13:44.009Z,6.60
2023-05-09T01:16:26.627Z,6.18
2023-05-09T01:18:58.910Z,7.40
2023-05-09T01:21:30.591Z,6.88
2023-05-09T01:24:25.160Z,7.18
2023-05-09T01:27:13.194Z,6.70
2023-05-09T01:29:44.946Z,6.80
2023-05-09T01:32:19.975Z,6.78
2023-05-09T01:34:49.741Z,7.10
2023-05-09T01:37:19.548Z,6.45
2023-05-09T01:39:52.081Z,6.20
2023-05-09T01:42:21.134Z,6.28
2023-05-09T01:44:49.298Z,7.25
2023-05-09T01:47:18.437Z,6.18
2023-05-09T01:49:47.490Z,7.03
2023-05-09T01:52:17.979Z,6.57
2023-05-09T01:54:46.314Z,6.47
2023-05-09T01:57:14.783Z,6.43
2023-05-09T01:59:44.985Z,6.03
2023-05-09T02:02:12.428Z,6.47
2023-05-09T02:04:41.521Z,6.85
2023-05-09T02:07:09.413Z,6.03
2023-05-09T02:09:36.440Z,6.15
2023-05-09T02:12:04.736Z,7.32
2023-05-09T02:14:32.110Z,7.53
2023-05-09T02:17:06.596Z,6.70
2023-05-09T02:19:35.611Z,7.35
2023-05-09T02:22:04.915Z,7.50
2023-05-09T02:24:34.231Z,7.07
2023-05-09T02:27:03.364Z,7.35
2023-05-09T02:29:40.234Z,6.65
2023-05-09T02:32:09.911Z,6.38
2023-05-09T02:34:38.595Z,7.10
2023-05-09T02:37:07.278Z,6.70
2023-05-09T02:39:34.818Z,6.80
2023-05-09T02:42:13.564Z,7.38
2023-05-09T02:44:40.494Z,7.40
2023-05-09T02:47:08.103Z,6.93
2023-05-09T02:49:35.352Z,7.15
2023-05-09T02:54:29.077Z,6.32
2023-05-09T02:56:56.059Z,6.72
2023-05-09T02:59:23.330Z,6.10
2023-05-09T03:04:18.146Z,6.97
2023-05-09T03:06:45.217Z,6.47
2023-05-09T03:09:12.145Z,7.00
2023-05-09T03:11:39.253Z,6.63
2023-05-09T03:14:08.513Z,7.50
2023-05-09T03:16:36.944Z,6.57
2023-05-09T03:19:04.210Z,6.47
2023-05-09T03:23:59.556Z,6.68
2023-05-09T03:26:26.679Z,6.75
2023-05-09T03:28:53.665Z,7.10
2023-05-09T03:31:20.668Z,6.72
2023-05-09T03:33:47.634Z,6.90
2023-05-09T03:36:14.770Z,7.50
2023-05-09T03:38:41.649Z,7.47
2023-05-09T03:41:08.572Z,7.88
2023-05-09T03:43:35.587Z,6.78
2023-05-09T03:46:02.474Z,6.90
2023-05-09T03:48:29.575Z,7.22
2023-05-09T03:50:56.543Z,7.13
2023-05-09T03:53:23.681Z,6.85
2023-05-09T03:55:50.759Z,6.95
2023-05-09T03:58:19.467Z,7.68
2023-05-09T04:00:46.577Z,7.53
2023-05-09T04:03:13.788Z,7.07
2023-05-09T04:08:07.999Z,6.78
2023-05-09T04:13:01.858Z,6.55
2023-05-09T04:15:28.853Z,6.50
2023-05-09T04:17:55.861Z,6.75
2023-05-09T04:20:22.903Z,7.07
2023-05-09T04:22:51.274Z,7.25
2023-05-09T04:25:20.255Z,7.13
2023-05-09T04:27:47.164Z,6.97
2023-05-09T04:30:14.539Z,7.68
2023-05-09T04:32:49.111Z,7.13
2023-05-09T04:35:17.424Z,6.72
2023-05-09T04:37:48.214Z,7.38
2023-05-09T04:40:17.927Z,7.57
2023-05-09T04:42:45.232Z,7.25
2023-05-09T04:45:12.827Z,6.68
2023-05-09T04:47:40.397Z,6.15
2023-05-09T04:52:35.953Z,6.85
2023-05-09T04:55:03.063Z,7.30
2023-05-09T04:59:56.913Z,6.68
2023-05-09T05:02:25.433Z,6.70
2023-05-09T05:04:56.102Z,6.40
2023-05-09T05:07:27.220Z,5.93
2023-05-09T05:09:54.669Z,6.43
2023-05-09T05:12:21.904Z,6.25
2023-05-09T05:17:19.492Z,6.68
2023-05-09T05:19:46.390Z,7.53
2023-05-09T05:22:13.848Z,6.22
2023-05-09T05:24:40.778Z,6.47
2023-05-09T05:27:07.698Z,7.45
2023-05-09T05:29:34.694Z,6.43
2023-05-09T05:32:01.671Z,6.63
2023-05-09T05:34:28.594Z,7.43
2023-05-09T05:36:56.130Z,7.10
2023-05-09T05:39:23.020Z,6.88
2023-05-09T05:41:52.027Z,6.82
2023-05-09T05:44:19.061Z,7.43
2023-05-09T05:46:46.532Z,7.35
2023-05-09T05:49:13.430Z,7.53
2023-05-09T05:51:40.590Z,7.28
2023-05-09T05:54:07.580Z,7.53
2023-05-09T05:56:34.854Z,6.93
2023-05-09T05:59:02.017Z,7.28
2023-05-09T06:03:56.304Z,7.00
2023-05-09T06:06:26.127Z,6.47
2023-05-09T06:08:53.036Z,7.05
2023-05-09T06:11:21.248Z,7.80
2023-05-09T06:13:48.280Z,9.95
2023-05-09T06:16:19.620Z,10.02
2023-05-09T06:18:48.369Z,8.95
2023-05-09T06:21:15.322Z,9.70
2023-05-09T06:23:51.035Z,9.27
2023-05-09T06:26:28.960Z,9.35
2023-05-09T06:28:56.474Z,9.43
2023-05-09T06:31:24.886Z,10.60
2023-05-09T06:33:53.472Z,9.63
2023-05-09T06:36:20.405Z,8.88
2023-05-09T06:38:47.602Z,8.27
2023-05-09T06:41:14.564Z,8.63
2023-05-09T06:43:41.457Z,7.63
2023-05-09T06:46:09.825Z,8.35
2023-05-09T06:48:38.034Z,6.43
2023-05-09T06:51:04.987Z,6.68
2023-05-09T06:53:32.049Z,6.93
2023-05-09T06:58:26.900Z,5.65
2023-05-09T07:00:54.359Z,5.40
2023-05-09T07:03:21.335Z,5.82
2023-05-09T07:05:48.288Z,5.53
2023-05-09T07:08:15.260Z,5.05
2023-05-09T07:10:42.202Z,5.40
2023-05-09T07:13:09.142Z,5.50
2023-05-09T07:15:42.197Z,5.25
2023-05-09T07:18:10.225Z,5.30
2023-05-09T07:20:37.240Z,5.00
2023-05-09T07:23:04.952Z,4.20
2023-05-09T07:25:32.147Z,4.25
2023-05-09T07:27:59.127Z,4.07
2023-05-09T07:30:26.300Z,3.75
2023-05-09T07:32:53.595Z,4.28
2023-05-09T07:35:21.150Z,4.22
2023-05-09T07:37:48.290Z,4.72
2023-05-09T07:40:15.929Z,3.70
2023-05-09T07:42:49.615Z,4.28
2023-05-09T07:45:17.374Z,3.60
2023-05-09T07:47:45.218Z,4.35
2023-05-09T07:52:39.077Z,3.67
2023-05-09T07:55:06.765Z,3.25
2023-05-09T07:57:33.696Z,3.42
2023-05-09T08:02:27.529Z,4.15
2023-05-09T08:04:54.522Z,3.60
2023-05-09T08:09:48.291Z,3.67
2023-05-09T08:14:42.109Z,3.83
2023-05-09T08:17:09.159Z,3.65
2023-05-09T08:19:36.019Z,3.80
2023-05-09T08:24:30.669Z,3.72
2023-05-09T08:26:57.646Z,3.22
2023-05-09T08:29:24.608Z,4.43
2023-05-09T08:31:51.664Z,3.72
2023-05-09T08:34:18.575Z,4.07
2023-05-09T08:36:47.128Z,4.68
2023-05-09T08:39:14.165Z,4.20
2023-05-09T08:41:42.504Z,3.88
2023-05-09T08:44:09.902Z,3.90
2023-05-09T08:46:43.929Z,3.78
2023-05-09T08:49:11.497Z,2.90
2023-05-09T08:51:39.933Z,2.97
2023-05-09T08:54:07.054Z,3.78
2023-05-09T08:56:35.582Z,3.03
2023-05-09T08:59:03.993Z,2.97
2023-05-09T09:01:33.360Z,2.90
2023-05-09T09:04:01.404Z,3.17
2023-05-09T09:06:30.223Z,2.90
2023-05-09T09:08:58.906Z,3.17
2023-05-09T09:11:26.391Z,3.10
2023-05-09T09:13:54.612Z,3.45
2023-05-09T09:16:24.280Z,3.10
2023-05-09T09:18:58.044Z,3.88
2023-05-09T09:21:25.640Z,2.80
2023-05-09T09:23:55.253Z,3.20
2023-05-09T09:26:22.441Z,3.05
2023-05-09T09:28:49.314Z,2.92
2023-05-09T09:31:23.951Z,3.40
2023-05-09T09:33:51.642Z,4.00
2023-05-09T09:36:32.657Z,4.00
2023-05-09T09:39:01.212Z,2.92
2023-05-09T09:41:46.059Z,3.97
2023-05-09T09:44:18.165Z,3.33
2023-05-09T09:46:52.753Z,3.13
2023-05-09T09:49:21.940Z,3.05
2023-05-09T09:51:57.134Z,3.38
2023-05-09T09:54:27.778Z,3.30
2023-05-09T09:56:55.379Z,3.25
2023-05-09T09:59:27.476Z,2.85
2023-05-09T10:02:04.878Z,3.22
2023-05-09T10:04:36.603Z,3.80
2023-05-09T10:07:08.497Z,3.03
2023-05-09T10:09:38.160Z,3.50
2023-05-09T10:12:07.201Z,2.95
2023-05-09T10:14:36.187Z,2.40
2023-05-09T10:17:05.297Z,2.88
2023-05-09T10:19:33.212Z,2.92
2023-05-09T10:22:12.055Z,3.17
2023-05-09T10:24:41.926Z,3.72
2023-05-09T10:27:11.792Z,3.05
2023-05-09T10:29:45.676Z,2.97
2023-05-09T10:32:23.767Z,2.92
2023-05-09T10:34:54.744Z,2.78
2023-05-09T10:37:22.548Z,2.60
2023-05-09T10:39:53.927Z,2.90
2023-05-09T10:42:21.853Z,3.20
2023-05-09T10:44:50.225Z,3.10
2023-05-09T10:47:17.858Z,3.42
2023-05-09T10:49:45.981Z,3.90
2023-05-09T10:52:13.073Z,3.80
2023-05-09T10:54:40.002Z,3.38
2023-05-09T10:57:10.138Z,3.35
2023-05-09T10:59:43.817Z,3.03
2023-05-09T11:02:16.101Z,3.22
2023-05-09T11:04:44.391Z,2.95
2023-05-09T11:07:25.642Z,3.03
2023-05-09T11:09:53.861Z,3.10
2023-05-09T11:12:22.026Z,3.22
2023-05-09T11:14:51.901Z,3.03
2023-05-09T11:17:21.964Z,3.65
2023-05-09T11:19:51.840Z,3.20
2023-05-09T11:22:28.285Z,2.75
2023-05-09T11:25:17.093Z,3.60
2023-05-09T11:27:48.709Z,3.30
2023-05-09T11:30:20.284Z,2.97
2023-05-09T11:32:59.166Z,2.75
2023-05-09T11:35:29.206Z,2.75
2023-05-09T11:38:06.809Z,2.67
2023-05-09T11:40:35.249Z,2.10
2023-05-09T11:43:02.514Z,2.65
2023-05-09T11:45:31.647Z,2.60
2023-05-09T11:47:59.395Z,2.90
2023-05-09T11:50:26.700Z,2.67
2023-05-09T11:52:54.139Z,2.30
2023-05-09T11:55:30.544Z,2.75
2023-05-09T11:57:58.783Z,2.67
2023-05-09T12:00:26.739Z,2.13
2023-05-09T12:02:54.125Z,2.45
2023-05-09T12:05:22.975Z,2.38
2023-05-09T12:07:50.335Z,2.75
2023-05-09T12:10:20.873Z,3.00
2023-05-09T12:12:51.057Z,2.60
2023-05-09T12:15:18.972Z,2.45
2023-05-09T12:17:48.836Z,2.83
2023-05-09T12:20:17.445Z,2.53
2023-05-09T12:22:44.558Z,2.55
2023-05-09T12:25:12.294Z,2.47
2023-05-09T12:27:40.853Z,2.85
2023-05-09T12:30:10.825Z,2.30
2023-05-09T12:32:40.458Z,2.65
2023-05-09T12:35:10.619Z,1.67
2023-05-09T12:37:37.957Z,2.30
2023-05-09T12:40:15.484Z,2.63
2023-05-09T12:42:46.377Z,2.75
2023-05-09T12:45:14.553Z,2.33
2023-05-09T12:47:42.294Z,2.17
2023-05-09T12:50:12.419Z,2.35
2023-05-09T12:53:01.887Z,2.55
2023-05-09T12:55:31.266Z,2.95
2023-05-09T12:58:00.935Z,3.28
2023-05-09T13:00:29.850Z,2.33
2023-05-09T13:02:57.206Z,2.17
2023-05-09T13:05:24.532Z,2.13
2023-05-09T13:07:57.022Z,2.03
2023-05-09T13:10:26.294Z,2.35
2023-05-09T13:12:54.352Z,2.30
2023-05-09T13:15:22.898Z,2.10
2023-05-09T13:17:51.441Z,2.15
2023-05-09T13:20:20.330Z,2.22
2023-05-09T13:22:47.766Z,1.98
2023-05-09T13:25:16.339Z,1.38
2023-05-09T13:27:44.060Z,1.90
2023-05-09T13:30:11.691Z,2.08
2023-05-09T13:32:39.116Z,1.80
2023-05-09T13:35:08.188Z,1.35
2023-05-09T13:37:35.837Z,1.40
2023-05-09T13:40:03.392Z,1.92
2023-05-09T13:42:32.057Z,1.30
2023-05-09T13:45:00.978Z,1.40
2023-05-09T13:47:28.465Z,2.15
2023-05-09T13:49:55.981Z,1.85
2023-05-09T13:52:23.288Z,2.30
2023-05-09T13:54:52.432Z,1.45
2023-05-09T13:57:19.428Z,2.05
2023-05-09T13:59:46.434Z,2.00
2023-05-09T14:02:21.028Z,1.65
2023-05-09T14:04:49.054Z,1.75
2023-05-09T14:07:16.945Z,1.98
2023-05-09T14:09:44.216Z,2.30
2023-05-09T14:12:12.902Z,1.75
2023-05-09T14:14:41.669Z,1.92
2023-05-09T14:17:10.029Z,1.75
2023-05-09T14:19:36.999Z,1.90
2023-05-09T14:22:04.599Z,1.98
2023-05-09T14:24:34.564Z,1.83
2023-05-09T14:27:06.379Z,1.50
2023-05-09T14:29:34.533Z,1.90
2023-05-09T14:32:04.157Z,1.85
2023-05-09T14:34:31.278Z,1.80
2023-05-09T14:37:00.056Z,1.38
2023-05-09T14:39:27.103Z,1.50
2023-05-09T14:41:57.207Z,1.45
2023-05-09T14:44:26.332Z,2.00
2023-05-09T14:46:55.798Z,1.92
2023-05-09T14:49:23.258Z,2.13
2023-05-09T14:51:53.159Z,1.02
2023-05-09T14:54:20.472Z,1.75
2023-05-09T14:56:48.583Z,1.20
2023-05-09T14:59:16.455Z,1.73
2023-05-09T15:01:45.635Z,1.58
2023-05-09T15:04:12.920Z,1.40
2023-05-09T15:06:40.042Z,1.63
2023-05-09T15:09:06.971Z,1.52
2023-05-09T15:11:46.667Z,1.58
2023-05-09T15:14:17.794Z,1.80
2023-05-09T15:16:45.123Z,1.70
2023-05-09T15:19:12.017Z,2.58
2023-05-09T15:21:38.925Z,2.30
2023-05-09T15:24:08.642Z,1.67
2023-05-09T15:26:36.861Z,2.33
2023-05-09T15:29:04.840Z,2.33
2023-05-09T15:31:36.983Z,2.45
2023-05-09T15:34:04.328Z,2.13
2023-05-09T15:36:34.699Z,2.72
2023-05-09T15:39:02.499Z,2.78
2023-05-09T15:41:29.780Z,2.50
2023-05-09T15:43:57.992Z,2.10
2023-05-09T15:46:25.461Z,1.70
2023-05-09T15:48:55.396Z,1.77
2023-05-09T15:51:23.320Z,1.95
2023-05-09T15:53:50.340Z,1.75
2023-05-09T15:56:17.426Z,2.10
2023-05-09T15:58:44.387Z,1.98
2023-05-09T16:01:13.537Z,2.15
2023-05-09T16:03:41.190Z,1.73
2023-05-09T16:06:08.825Z,2.10
2023-05-09T16:08:35.910Z,1.92
2023-05-09T16:13:30.447Z,1.55
2023-05-09T16:15:59.868Z,1.60
2023-05-09T16:18:26.774Z,1.48
2023-05-09T16:23:21.176Z,1.95
2023-05-09T16:25:49.873Z,1.92
2023-05-09T16:28:19.642Z,1.63
2023-05-09T16:30:47.070Z,1.45
2023-05-09T16:33:14.274Z,1.33
2023-05-09T16:35:41.281Z,1.85
2023-05-09T16:38:09.544Z,1.80
2023-05-09T16:40:42.345Z,2.00
2023-05-09T16:43:09.647Z,1.77
2023-05-09T16:45:37.240Z,2.00
2023-05-09T16:48:04.691Z,1.77
2023-05-09T16:50:31.907Z,2.28
2023-05-09T16:52:59.001Z,1.52
2023-05-09T16:55:26.027Z,2.25
2023-05-09T16:57:53.039Z,1.83
2023-05-09T17:02:48.079Z,2.50
2023-05-09T17:07:43.021Z,2.22
2023-05-09T17:10:10.701Z,2.08
2023-05-09T17:12:39.572Z,1.70
2023-05-09T17:15:07.813Z,2.08
2023-05-09T17:17:37.737Z,2.50
2023-05-09T17:20:06.698Z,2.50
2023-05-09T17:22:34.771Z,2.30
2023-05-09T17:25:05.461Z,2.65
2023-05-09T17:27:40.206Z,2.17
2023-05-09T17:30:10.556Z,2.67
2023-05-09T17:32:38.019Z,3.15
2023-05-09T17:35:06.089Z,2.70
2023-05-09T17:37:34.279Z,2.58
2023-05-09T17:40:01.482Z,2.05
2023-05-09T17:42:28.732Z,3.17
2023-05-09T17:44:57.581Z,2.75
2023-05-09T17:47:24.638Z,2.25
2023-05-09T17:52:22.296Z,1.55
2023-05-09T17:54:54.218Z,2.22
2023-05-09T17:57:21.517Z,1.98
2023-05-09T17:59:48.653Z,2.60
2023-05-09T18:02:17.046Z,2.60
2023-05-09T18:04:46.414Z,2.22
2023-05-09T18:07:13.352Z,2.58
2023-05-09T18:09:40.667Z,2.67
2023-05-09T18:12:08.739Z,2.40
2023-05-09T18:14:36.175Z,2.58
2023-05-09T18:17:03.247Z,2.85
2023-05-09T18:21:57.675Z,3.20
2023-05-09T18:24:24.729Z,3.00
2023-05-09T18:29:19.705Z,3.00
2023-05-09T18:31:47.392Z,2.95
2023-05-09T18:34:14.428Z,3.88
2023-05-09T18:36:41.536Z,3.45
2023-05-09T18:41:37.084Z,2.85
2023-05-09T18:44:04.611Z,2.75
2023-05-09T18:46:33.812Z,2.90
2023-05-09T18:49:01.840Z,2.90
2023-05-09T18:51:31.291Z,3.28
2023-05-09T18:53:58.528Z,2.72
2023-05-09T18:56:25.629Z,3.58
2023-05-09T18:58:52.643Z,3.55
2023-05-09T19:01:19.991Z,3.25
2023-05-09T19:03:53.621Z,3.60
2023-05-09T19:06:20.601Z,3.72
2023-05-09T19:08:48.258Z,3.22
2023-05-09T19:11:15.220Z,3.65
2023-05-09T19:13:48.631Z,3.42
2023-05-09T19:18:43.302Z,4.05
2023-05-09T19:21:10.965Z,3.22
2023-05-09T19:23:38.272Z,4.68
2023-05-09T19:26:05.195Z,4.70
2023-05-09T19:28:32.325Z,4.13
2023-05-09T19:33:26.107Z,3.65
2023-05-09T19:35:53.082Z,3.13
2023-05-09T19:38:20.039Z,4.20
2023-05-09T19:40:47.031Z,3.58
2023-05-09T19:43:13.949Z,3.80
2023-05-09T19:45:40.926Z,4.28
2023-05-09T19:48:08.564Z,4.50
2023-05-09T19:50:35.495Z,4.10
2023-05-09T19:53:02.423Z,4.63
2023-05-09T19:55:29.411Z,4.80
2023-05-09T19:57:56.450Z,4.13
2023-05-09T20:00:24.686Z,4.60
2023-05-09T20:02:51.697Z,4.30
2023-05-09T20:05:19.006Z,4.20
2023-05-09T20:07:45.891Z,4.88
2023-05-09T20:10:14.330Z,4.40
2023-05-09T20:12:41.692Z,4.55
2023-05-09T20:17:35.760Z,5.10
2023-05-09T20:20:02.667Z,4.75
2023-05-09T20:22:29.616Z,4.75
2023-05-09T20:24:56.498Z,5.50
2023-05-09T20:27:23.701Z,5.00
2023-05-09T20:32:17.322Z,4.18
2023-05-09T20:34:44.186Z,4.70
2023-05-09T20:37:11.987Z,5.03
2023-05-09T20:39:38.938Z,4.47
2023-05-09T20:42:06.699Z,4.78
2023-05-09T20:44:33.790Z,5.20
2023-05-09T20:47:00.756Z,4.65
2023-05-09T20:49:27.685Z,4.95
2023-05-09T20:51:55.430Z,4.93
2023-05-09T20:54:24.086Z,5.19
2023-05-09T20:56:51.073Z,4.80
2023-05-09T20:59:18.198Z,5.90
2023-05-09T21:01:45.102Z,5.05
2023-05-09T21:04:12.039Z,5.53
2023-05-09T21:06:38.933Z,4.90
2023-05-09T21:09:06.291Z,4.10
2023-05-09T21:11:33.214Z,5.00
2023-05-09T21:14:00.083Z,4.53
2023-05-09T21:16:28.235Z,4.45
2023-05-09T21:18:55.121Z,5.20
2023-05-09T21:21:22.515Z,4.65
2023-05-09T21:23:49.357Z,4.57
2023-05-09T21:26:16.935Z,4.40
2023-05-09T21:28:43.894Z,3.83
2023-05-09T21:31:11.556Z,4.28
2023-05-09T21:33:38.653Z,4.07
2023-05-09T21:36:06.299Z,4.10
2023-05-09T21:38:33.204Z,4.03
2023-05-09T21:41:00.118Z,4.20
2023-05-09T21:43:28.664Z,3.80
2023-05-09T21:45:56.131Z,3.65
2023-05-09T21:48:23.053Z,3.70
2023-05-09T21:50:49.979Z,4.10
2023-05-09T21:53:16.861Z,3.50
2023-05-09T21:55:43.761Z,3.65
2023-05-09T21:58:10.629Z,4.00
2023-05-09T22:00:37.486Z,3.63
2023-05-09T22:03:04.483Z,3.97
2023-05-09T22:05:31.436Z,3.63
2023-05-09T22:07:58.270Z,3.63
2023-05-09T22:10:25.136Z,3.67
2023-05-09T22:12:52.128Z,3.70
2023-05-09T22:15:19.118Z,3.13
2023-05-09T22:17:46.070Z,3.55
2023-05-09T22:20:13.256Z,3.42
2023-05-09T22:25:07.404Z,3.40
2023-05-09T22:27:34.465Z,4.03
2023-05-09T22:30:01.631Z,4.20
2023-05-09T22:34:55.407Z,4.13
2023-05-09T22:37:22.406Z,4.05
2023-05-09T22:39:49.258Z,4.97
2023-05-09T22:42:16.266Z,6.15
2023-05-09T22:44:43.237Z,5.18
2023-05-09T22:47:10.428Z,5.03
2023-05-09T22:52:04.795Z,5.53
2023-05-09T22:56:58.601Z,4.73
2023-05-09T22:59:25.682Z,4.70
2023-05-09T23:01:53.624Z,5.18
2023-05-09T23:04:20.766Z,4.90
2023-05-09T23:06:47.720Z,5.38
2023-05-09T23:09:14.729Z,5.18
2023-05-09T23:11:42.351Z,4.85
2023-05-09T23:14:09.441Z,5.15
2023-05-09T23:16:36.762Z,5.10
2023-05-09T23:19:03.712Z,5.75
2023-05-09T23:21:30.677Z,5.10
2023-05-09T23:23:57.672Z,5.50
2023-05-09T23:26:24.636Z,4.88
2023-05-09T23:28:51.626Z,5.43
2023-05-09T23:31:18.568Z,5.85
2023-05-09T23:33:45.554Z,6.10
2023-05-09T23:36:12.546Z,6.03
2023-05-09T23:38:39.438Z,6.05
2023-05-09T23:41:06.504Z,7.38
2023-05-09T23:43:33.742Z,6.55
2023-05-09T23:48:27.400Z,7.30
2023-05-09T23:50:54.284Z,7.30
2023-05-09T23:53:21.224Z,6.88
2023-05-09T23:55:48.204Z,7.38
2023-05-09T23:58:15.135Z,8.63
